createdAt,value
2018-05-02T00:00:33.344Z,63.10
2018-05-02T00:03:00.920Z,63.40
2018-05-02T00:05:28.440Z,63.60
2018-05-02T00:07:55.950Z,63.60
2018-05-02T00:13:12.187Z,63.20
2018-05-02T00:15:39.691Z,63.40
2018-05-02T00:18:08.018Z,63.70
2018-05-02T00:20:35.492Z,63.10
2018-05-02T00:23:03.009Z,62.90
2018-05-02T00:25:30.532Z,62.60
2018-05-02T00:27:58.050Z,62.80
2018-05-02T00:30:25.577Z,63.30
2018-05-02T00:32:53.856Z,64.10
2018-05-02T00:35:21.369Z,63.50
2018-05-02T00:37:48.907Z,63.70
2018-05-02T00:40:16.421Z,64.20
2018-05-02T00:42:43.954Z,64.00
2018-05-02T00:45:11.471Z,63.80
2018-05-02T00:47:39.001Z,63.20
2018-05-02T00:50:06.519Z,63.80
2018-05-02T00:52:34.797Z,62.80
2018-05-02T00:55:03.078Z,63.20
2018-05-02T00:57:31.352Z,63.70
2018-05-02T00:59:59.627Z,63.50
2018-05-02T01:02:27.142Z,63.40
2018-05-02T01:04:54.669Z,63.40
2018-05-02T01:07:22.968Z,63.30
2018-05-02T01:09:50.474Z,63.30
2018-05-02T01:12:17.996Z,64.20
2018-05-02T01:14:45.505Z,63.80
2018-05-02T01:17:13.022Z,63.70
2018-05-02T01:19:40.532Z,64.00
2018-05-02T01:22:08.064Z,63.50
2018-05-02T01:24:35.577Z,63.50
2018-05-02T01:27:03.112Z,63.80
2018-05-02T01:29:30.636Z,63.30
2018-05-02T01:31:58.135Z,63.50
2018-05-02T01:34:25.685Z,63.80
2018-05-02T01:36:53.202Z,63.30
2018-05-02T01:39:20.758Z,63.80
2018-05-02T01:41:48.289Z,63.50
2018-05-02T01:44:15.787Z,63.40
2018-05-02T01:46:43.308Z,63.20
2018-05-02T01:49:22.716Z,63.30
2018-05-02T01:51:50.271Z,64.30
2018-05-02T01:54:18.545Z,63.60
2018-05-02T01:56:46.816Z,63.20
2018-05-02T01:59:15.119Z,63.60
2018-05-02T02:01:42.635Z,63.50
2018-05-02T02:04:10.160Z,63.50
2018-05-02T02:06:37.673Z,63.20
2018-05-02T02:09:06.015Z,63.20
2018-05-02T02:11:33.515Z,64.40
2018-05-02T02:14:01.027Z,63.70
2018-05-02T02:16:28.559Z,63.40
2018-05-02T02:18:56.069Z,63.40
2018-05-02T02:21:23.601Z,63.20
2018-05-02T02:23:51.873Z,64.30
2018-05-02T02:26:20.157Z,63.50
2018-05-02T02:28:48.425Z,64.00
2018-05-02T02:31:15.972Z,63.90
2018-05-02T02:33:43.489Z,64.20
2018-05-02T02:36:10.992Z,63.30
2018-05-02T02:38:38.517Z,63.30
2018-05-02T02:41:06.024Z,64.10
2018-05-02T02:43:33.554Z,64.30
2018-05-02T02:46:01.067Z,64.60
2018-05-02T02:48:28.623Z,64.40
2018-05-02T02:50:56.134Z,64.00
2018-05-02T02:53:23.639Z,64.60
2018-05-02T02:55:51.157Z,64.20
2018-05-02T02:58:18.659Z,64.10
2018-05-02T03:00:46.177Z,64.20
2018-05-02T03:03:13.704Z,64.60
2018-05-02T03:05:41.219Z,65.00
2018-05-02T03:08:08.719Z,64.50
2018-05-02T03:10:36.264Z,65.00
2018-05-02T03:13:03.774Z,64.90
2018-05-02T03:15:31.284Z,64.50
2018-05-02T03:17:58.799Z,64.30
2018-05-02T03:20:26.302Z,64.20
2018-05-02T03:22:53.832Z,64.90
2018-05-02T03:25:22.105Z,65.00
2018-05-02T03:27:49.631Z,64.90
2018-05-02T03:30:17.154Z,64.80
2018-05-02T03:32:45.450Z,64.60
2018-05-02T03:35:12.970Z,64.60
2018-05-02T03:37:40.630Z,64.90
2018-05-02T03:40:08.152Z,65.10
2018-05-02T03:42:35.652Z,65.30
2018-05-02T03:45:03.184Z,65.70
2018-05-02T03:47:30.706Z,65.10
2018-05-02T03:49:59.022Z,64.80
2018-05-02T03:52:26.532Z,64.70
2018-05-02T03:54:54.041Z,64.70
2018-05-02T03:57:21.571Z,64.50
2018-05-02T04:00:01.152Z,63.90
2018-05-02T04:02:41.618Z,63.80
2018-05-02T04:05:20.999Z,63.80
2018-05-02T04:07:48.521Z,64.60
2018-05-02T04:10:16.029Z,64.90
2018-05-02T04:12:43.546Z,65.70
2018-05-02T04:15:11.818Z,66.50
2018-05-02T04:17:39.337Z,66.50
2018-05-02T04:20:06.862Z,67.00
2018-05-02T04:22:34.389Z,66.70
2018-05-02T04:25:01.901Z,66.50
2018-05-02T04:27:30.176Z,67.00
2018-05-02T04:29:58.580Z,66.60
2018-05-02T04:32:26.131Z,66.60
2018-05-02T04:34:54.433Z,67.30
2018-05-02T04:37:21.951Z,66.60
2018-05-02T04:39:49.488Z,67.40
2018-05-02T04:42:16.993Z,67.20
2018-05-02T04:44:45.270Z,67.40
2018-05-02T04:47:12.786Z,67.40
2018-05-02T04:49:40.290Z,67.10
2018-05-02T04:52:08.591Z,68.00
2018-05-02T04:54:36.869Z,67.70
2018-05-02T04:57:05.147Z,66.90
2018-05-02T04:59:33.493Z,66.20
2018-05-02T05:02:00.984Z,66.30
2018-05-02T05:04:28.560Z,66.20
2018-05-02T05:06:56.031Z,65.30
2018-05-02T05:09:23.576Z,65.50
2018-05-02T05:11:51.088Z,65.70
2018-05-02T05:14:18.604Z,65.50
2018-05-02T05:16:46.894Z,65.30
2018-05-02T05:19:15.182Z,64.50
2018-05-02T05:21:43.488Z,64.40
2018-05-02T05:24:10.998Z,64.40
2018-05-02T05:26:38.513Z,64.10
2018-05-02T05:29:06.032Z,64.20
2018-05-02T05:31:33.560Z,64.20
2018-05-02T05:34:01.086Z,64.00
2018-05-02T05:36:28.586Z,63.40
2018-05-02T05:38:56.121Z,63.80
2018-05-02T05:41:23.627Z,63.90
2018-05-02T05:43:51.498Z,64.10
2018-05-02T05:46:20.970Z,64.70
2018-05-02T05:48:48.475Z,64.70
2018-05-02T05:51:15.994Z,63.80
2018-05-02T05:53:43.496Z,63.20
2018-05-02T05:56:11.021Z,62.50
2018-05-02T05:58:38.546Z,63.50
2018-05-02T06:01:06.079Z,63.10
2018-05-02T06:03:33.588Z,64.50
2018-05-02T06:06:01.871Z,64.70
2018-05-02T06:08:30.151Z,64.10
2018-05-02T06:10:58.435Z,62.60
2018-05-02T06:13:26.729Z,63.10
2018-05-02T06:15:54.245Z,63.10
2018-05-02T06:18:21.778Z,63.70
2018-05-02T06:20:49.290Z,62.10
2018-05-02T06:23:16.832Z,63.30
2018-05-02T06:25:44.357Z,65.20
2018-05-02T06:28:11.873Z,62.40
2018-05-02T06:30:40.966Z,62.80
2018-05-02T06:33:08.484Z,62.70
2018-05-02T06:35:36.010Z,62.70
2018-05-02T06:38:03.525Z,62.00
2018-05-02T06:40:31.077Z,59.40
2018-05-02T06:42:58.584Z,61.30
2018-05-02T06:45:26.093Z,62.80
2018-05-02T06:47:53.611Z,61.70
2018-05-02T06:50:21.200Z,62.40
2018-05-02T06:52:48.658Z,62.10
2018-05-02T06:55:16.940Z,62.30
2018-05-02T06:57:45.232Z,61.80
2018-05-02T07:00:13.503Z,61.00
2018-05-02T07:02:41.807Z,61.30
2018-05-02T07:05:10.087Z,61.10
2018-05-02T07:07:37.595Z,61.10
2018-05-02T07:10:05.112Z,62.10
2018-05-02T07:12:32.621Z,59.80
2018-05-02T07:15:00.141Z,62.40
2018-05-02T07:17:27.654Z,61.90
2018-05-02T07:19:55.950Z,61.00
2018-05-02T07:22:23.460Z,60.90
2018-05-02T07:24:50.983Z,61.10
2018-05-02T07:27:18.504Z,60.70
2018-05-02T07:29:46.028Z,60.90
2018-05-02T07:32:14.302Z,61.90
2018-05-02T07:34:42.609Z,61.90
2018-05-02T07:37:10.124Z,61.80
2018-05-02T07:39:37.692Z,62.40
2018-05-02T07:42:05.194Z,60.60
2018-05-02T07:44:32.714Z,61.60
2018-05-02T07:47:00.244Z,61.40
2018-05-02T07:49:27.753Z,60.10
2018-05-02T07:51:56.057Z,59.70
2018-05-02T07:54:24.342Z,61.50
2018-05-02T07:56:52.623Z,61.30
2018-05-02T07:59:20.922Z,61.70
2018-05-02T08:01:48.429Z,61.60
2018-05-02T08:04:16.750Z,60.60
2018-05-02T08:06:44.720Z,60.50
2018-05-02T08:09:12.985Z,61.40
2018-05-02T08:11:41.282Z,60.10
2018-05-02T08:14:09.585Z,59.70
2018-05-02T08:16:37.119Z,59.70
2018-05-02T08:19:05.401Z,60.60
2018-05-02T08:21:33.722Z,58.60
2018-05-02T08:24:01.246Z,58.60
2018-05-02T08:26:29.537Z,60.70
2018-05-02T08:28:57.072Z,60.70
2018-05-02T08:31:24.581Z,59.80
2018-05-02T08:33:52.130Z,59.70
2018-05-02T08:36:19.643Z,59.30
2018-05-02T08:38:47.175Z,58.70
2018-05-02T08:41:14.688Z,58.70
2018-05-02T08:43:43.000Z,57.70
2018-05-02T08:48:37.100Z,58.30
2018-05-02T08:51:05.405Z,59.10
2018-05-02T08:53:32.914Z,59.10
2018-05-02T08:56:01.227Z,58.40
2018-05-02T08:58:29.556Z,58.20
2018-05-02T09:00:57.240Z,58.20
2018-05-02T09:03:24.774Z,58.10
2018-05-02T09:05:52.291Z,57.50
2018-05-02T09:08:19.819Z,58.00
2018-05-02T09:10:47.343Z,57.30
2018-05-02T09:13:14.876Z,58.40
2018-05-02T09:15:42.382Z,59.90
2018-05-02T09:18:09.899Z,58.50
2018-05-02T09:20:37.439Z,57.30
2018-05-02T09:23:04.971Z,58.70
2018-05-02T09:25:32.506Z,60.40
2018-05-02T09:28:00.787Z,56.20
2018-05-02T09:30:29.083Z,56.20
2018-05-02T09:32:57.357Z,58.30
2018-05-02T09:35:25.641Z,57.30
2018-05-02T09:37:53.940Z,56.90
2018-05-02T09:40:21.441Z,56.70
2018-05-02T09:42:48.984Z,57.90
2018-05-02T09:45:16.493Z,57.30
2018-05-02T09:47:44.019Z,54.90
2018-05-02T09:50:11.529Z,55.10
2018-05-02T09:52:39.827Z,57.00
2018-05-02T09:55:07.353Z,57.10
2018-05-02T09:57:34.875Z,53.30
2018-05-02T10:00:02.412Z,55.00
2018-05-02T10:02:30.686Z,56.10
2018-05-02T10:04:58.977Z,54.20
2018-05-02T10:07:27.238Z,56.30
2018-05-02T10:09:54.771Z,56.40
2018-05-02T10:12:22.283Z,56.70
2018-05-02T10:14:49.804Z,55.60
2018-05-02T10:17:17.320Z,56.60
2018-05-02T10:19:44.831Z,56.90
2018-05-02T10:22:12.353Z,55.60
2018-05-02T10:24:39.855Z,55.90
2018-05-02T10:27:07.387Z,55.00
2018-05-02T10:29:34.905Z,55.70
2018-05-02T10:32:02.413Z,56.30
2018-05-02T10:34:29.946Z,57.40
2018-05-02T10:36:58.266Z,53.70
2018-05-02T10:39:26.519Z,56.80
2018-05-02T10:41:54.800Z,55.40
2018-05-02T10:44:22.321Z,55.40
2018-05-02T10:46:49.857Z,55.10
2018-05-02T10:49:17.380Z,54.90
2018-05-02T10:51:45.671Z,55.60
2018-05-02T10:54:13.951Z,56.60
2018-05-02T10:56:42.265Z,56.00
2018-05-02T10:59:09.783Z,55.80
2018-05-02T11:01:38.057Z,56.50
2018-05-02T11:04:05.597Z,56.50
2018-05-02T11:06:33.152Z,56.60
2018-05-02T11:09:00.689Z,57.50
2018-05-02T11:11:28.209Z,56.60
2018-05-02T11:13:55.724Z,58.30
2018-05-02T11:16:23.255Z,57.80
2018-05-02T11:18:51.535Z,57.90
2018-05-02T11:21:19.840Z,57.80
2018-05-02T11:23:47.378Z,57.80
2018-05-02T11:26:15.669Z,58.90
2018-05-02T11:28:43.935Z,60.10
2018-05-02T11:31:12.241Z,58.30
2018-05-02T11:33:39.776Z,58.20
2018-05-02T11:36:07.300Z,56.80
2018-05-02T11:38:34.860Z,57.50
2018-05-02T11:41:02.393Z,56.60
2018-05-02T11:43:29.923Z,57.20
2018-05-02T11:45:57.471Z,56.30
2018-05-02T11:48:25.003Z,58.80
2018-05-02T11:50:52.529Z,54.70
2018-05-02T11:53:20.819Z,54.70
2018-05-02T11:55:49.119Z,55.10
2018-05-02T11:58:16.649Z,55.00
2018-05-02T12:00:44.971Z,56.30
2018-05-02T12:03:12.484Z,56.20
2018-05-02T12:05:40.046Z,54.10
2018-05-02T12:08:07.551Z,53.20
2018-05-02T12:10:35.118Z,52.90
2018-05-02T12:13:02.642Z,54.90
2018-05-02T12:15:30.162Z,52.00
2018-05-02T12:17:57.715Z,52.80
2018-05-02T12:20:25.225Z,51.50
2018-05-02T12:22:52.762Z,51.50
2018-05-02T12:25:20.271Z,52.30
2018-05-02T12:27:48.655Z,53.10
2018-05-02T12:30:16.152Z,53.00
2018-05-02T12:32:43.664Z,52.40
2018-05-02T12:35:11.976Z,52.20
2018-05-02T12:37:40.255Z,52.60
2018-05-02T12:40:08.569Z,52.60
2018-05-02T12:42:36.068Z,52.60
2018-05-02T12:45:03.601Z,52.80
2018-05-02T12:47:31.113Z,52.20
2018-05-02T12:49:59.435Z,53.00
2018-05-02T12:52:26.953Z,52.80
2018-05-02T12:54:54.517Z,53.10
2018-05-02T12:57:22.796Z,51.80
2018-05-02T12:59:51.089Z,53.50
2018-05-02T13:02:19.388Z,52.60
2018-05-02T13:04:46.919Z,52.60
2018-05-02T13:07:14.451Z,51.80
2018-05-02T13:09:41.970Z,53.40
2018-05-02T13:12:10.283Z,54.00
2018-05-02T13:14:37.806Z,54.00
2018-05-02T13:17:06.173Z,52.80
2018-05-02T13:19:34.452Z,53.40
2018-05-02T13:22:01.966Z,53.40
2018-05-02T13:24:29.492Z,54.40
2018-05-02T13:26:57.030Z,52.60
2018-05-02T13:29:24.573Z,54.50
2018-05-02T13:31:52.079Z,53.70
2018-05-02T13:34:19.619Z,54.60
2018-05-02T13:36:47.148Z,56.80
2018-05-02T13:39:14.695Z,56.60
2018-05-02T13:41:42.986Z,55.70
2018-05-02T13:44:10.516Z,55.70
2018-05-02T13:46:38.803Z,56.60
2018-05-02T13:49:06.323Z,56.40
2018-05-02T13:51:33.879Z,56.80
2018-05-02T13:54:01.385Z,56.10
2018-05-02T13:56:28.956Z,56.00
2018-05-02T13:58:57.237Z,54.60
2018-05-02T14:01:24.755Z,54.60
2018-05-02T14:03:52.279Z,54.20
2018-05-02T14:06:20.559Z,55.80
2018-05-02T14:08:48.844Z,55.70
2018-05-02T14:11:17.126Z,54.50
2018-05-02T14:13:45.444Z,53.80
2018-05-02T14:16:12.956Z,53.80
2018-05-02T14:18:41.243Z,55.90
2018-05-02T14:21:09.550Z,53.40
2018-05-02T14:23:37.070Z,53.30
2018-05-02T14:26:04.598Z,54.20
2018-05-02T14:28:32.103Z,54.00
2018-05-02T14:30:59.655Z,54.10
2018-05-02T14:33:27.164Z,53.70
2018-05-02T14:35:54.700Z,53.40
2018-05-02T14:38:23.018Z,55.50
2018-05-02T14:40:50.544Z,55.20
2018-05-02T14:43:18.848Z,53.60
2018-05-02T14:45:46.366Z,53.60
2018-05-02T14:48:13.892Z,52.80
2018-05-02T14:50:41.414Z,54.80
2018-05-02T14:53:08.957Z,53.80
2018-05-02T14:55:36.486Z,54.10
2018-05-02T14:58:04.047Z,53.20
2018-05-02T15:00:31.581Z,53.90
2018-05-02T15:02:59.850Z,54.40
2018-05-02T15:05:27.381Z,54.40
2018-05-02T15:07:54.903Z,55.00
2018-05-02T15:10:23.191Z,55.60
2018-05-02T15:12:50.694Z,55.60
2018-05-02T15:15:18.231Z,54.70
2018-05-02T15:17:45.763Z,54.80
2018-05-02T15:20:14.073Z,55.10
2018-05-02T15:22:41.590Z,55.10
2018-05-02T15:25:09.895Z,57.00
2018-05-02T15:27:38.180Z,56.40
2018-05-02T15:30:06.478Z,56.40
2018-05-02T15:32:34.070Z,56.30
2018-05-02T15:35:01.544Z,56.20
2018-05-02T15:37:29.076Z,56.00
2018-05-02T15:39:56.606Z,57.30
2018-05-02T15:42:24.926Z,57.20
2018-05-02T15:44:52.446Z,57.20
2018-05-02T15:47:20.772Z,57.90
2018-05-02T15:49:48.309Z,57.90
2018-05-02T15:52:15.832Z,57.90
2018-05-02T15:54:43.370Z,57.90
2018-05-02T15:57:10.913Z,58.30
2018-05-02T15:59:38.479Z,59.80
2018-05-02T16:02:06.016Z,58.00
2018-05-02T16:04:34.323Z,58.40
2018-05-02T16:07:01.925Z,58.40
2018-05-02T16:09:29.774Z,57.80
2018-05-02T16:11:57.345Z,58.00
2018-05-02T16:14:24.951Z,59.20
2018-05-02T16:16:53.263Z,58.00
2018-05-02T16:19:20.828Z,57.80
2018-05-02T16:21:48.341Z,56.70
2018-05-02T16:24:15.901Z,58.30
2018-05-02T16:26:43.457Z,57.10
2018-05-02T16:29:10.982Z,57.00
2018-05-02T16:31:38.563Z,57.50
2018-05-02T16:34:06.086Z,57.40
2018-05-02T16:36:34.406Z,55.60
2018-05-02T16:39:01.907Z,55.40
2018-05-02T16:41:29.440Z,55.90
2018-05-02T16:43:56.959Z,56.90
2018-05-02T16:46:24.493Z,56.50
2018-05-02T16:48:52.026Z,56.60
2018-05-02T16:51:19.592Z,56.30
2018-05-02T16:53:47.907Z,57.10
2018-05-02T16:56:15.534Z,57.10
2018-05-02T16:58:43.105Z,56.00
2018-05-02T17:01:10.670Z,56.00
2018-05-02T17:03:39.753Z,57.10
2018-05-02T17:06:07.333Z,57.10
2018-05-02T17:08:34.999Z,56.70
2018-05-02T17:11:02.571Z,57.80
2018-05-02T17:13:30.239Z,58.20
2018-05-02T17:15:57.845Z,58.60
2018-05-02T17:18:25.394Z,58.40
2018-05-02T17:20:52.942Z,58.20
2018-05-02T17:23:21.266Z,58.00
2018-05-02T17:25:48.851Z,58.00
2018-05-02T17:28:16.379Z,57.50
2018-05-02T17:30:43.903Z,57.50
2018-05-02T17:33:11.432Z,57.80
2018-05-02T17:35:39.709Z,58.30
2018-05-02T17:38:08.023Z,59.00
2018-05-02T17:40:35.568Z,59.00
2018-05-02T17:43:03.114Z,59.30
2018-05-02T17:45:30.677Z,59.10
2018-05-02T17:47:59.013Z,59.30
2018-05-02T17:50:26.584Z,59.20
2018-05-02T17:52:54.181Z,59.10
2018-05-02T17:55:22.626Z,59.30
2018-05-02T17:57:50.932Z,59.80
2018-05-02T18:00:19.339Z,58.80
2018-05-02T18:02:47.704Z,59.70
2018-05-02T18:05:15.362Z,59.60
2018-05-02T18:07:42.925Z,59.80
2018-05-02T18:10:10.531Z,60.20
2018-05-02T18:12:38.425Z,60.60
2018-05-02T18:15:06.615Z,61.00
2018-05-02T18:17:34.313Z,61.00
2018-05-02T18:20:03.480Z,61.50
2018-05-02T18:22:32.709Z,61.50
2018-05-02T18:25:00.472Z,61.60
2018-05-02T18:27:28.634Z,61.80
2018-05-02T18:29:56.409Z,61.90
2018-05-02T18:32:24.069Z,61.90
2018-05-02T18:34:51.691Z,62.00
2018-05-02T18:37:21.087Z,62.10
2018-05-02T18:39:49.516Z,62.50
2018-05-02T18:42:17.403Z,62.30
2018-05-02T18:44:45.272Z,62.40
2018-05-02T18:47:13.248Z,62.40
2018-05-02T18:49:42.048Z,62.20
2018-05-02T18:52:09.916Z,62.20
2018-05-02T18:54:37.694Z,62.10
2018-05-02T18:57:05.656Z,62.40
2018-05-02T18:59:33.445Z,62.20
2018-05-02T19:02:01.192Z,62.50
2018-05-02T19:04:28.964Z,62.40
2018-05-02T19:06:56.756Z,62.70
2018-05-02T19:09:24.607Z,62.30
2018-05-02T19:11:52.507Z,62.30
2018-05-02T19:14:20.867Z,62.30
2018-05-02T19:16:48.634Z,62.20
2018-05-02T19:19:32.265Z,62.20
2018-05-02T19:22:00.677Z,62.20
2018-05-02T19:24:33.940Z,62.20
2018-05-02T19:27:01.816Z,62.20
2018-05-02T19:29:29.701Z,62.70
2018-05-02T19:32:03.072Z,62.70
2018-05-02T19:34:30.953Z,62.60
2018-05-02T19:36:59.329Z,62.70
2018-05-02T19:39:27.138Z,62.70
2018-05-02T19:42:01.331Z,63.00
2018-05-02T19:44:29.293Z,62.90
2018-05-02T19:46:57.264Z,63.40
2018-05-02T19:49:24.912Z,63.40
2018-05-02T19:51:58.926Z,63.50
2018-05-02T19:54:27.441Z,63.80
2018-05-02T19:56:56.046Z,64.10
2018-05-02T19:59:23.947Z,64.10
2018-05-02T20:01:58.099Z,64.10
2018-05-02T20:04:25.790Z,64.10
2018-05-02T20:06:54.554Z,64.40
2018-05-02T20:09:27.993Z,64.20
2018-05-02T20:12:02.503Z,64.30
2018-05-02T20:14:30.132Z,64.60
2018-05-02T20:16:57.912Z,64.80
2018-05-02T20:19:25.632Z,64.60
2018-05-02T20:21:54.168Z,64.60
2018-05-02T20:24:21.776Z,64.70
2018-05-02T20:26:49.509Z,64.90
2018-05-02T20:29:18.296Z,64.80
2018-05-02T20:31:46.403Z,64.80
2018-05-02T20:34:14.041Z,65.10
2018-05-02T20:36:41.710Z,65.60
2018-05-02T20:39:09.328Z,65.80
2018-05-02T20:41:37.649Z,65.90
2018-05-02T20:44:05.352Z,65.90
2018-05-02T20:46:33.825Z,65.70
2018-05-02T20:49:01.380Z,65.90
2018-05-02T20:51:28.988Z,66.10
2018-05-02T20:53:57.327Z,66.70
2018-05-02T20:56:24.904Z,66.70
2018-05-02T20:58:52.492Z,66.70
2018-05-02T21:01:20.439Z,66.70
2018-05-02T21:03:48.005Z,66.60
2018-05-02T21:06:15.534Z,67.00
2018-05-02T21:08:43.118Z,67.20
2018-05-02T21:11:10.689Z,67.30
2018-05-02T21:13:38.238Z,67.60
2018-05-02T21:16:05.793Z,68.00
2018-05-02T21:18:33.342Z,68.30
2018-05-02T21:21:01.634Z,68.90
2018-05-02T21:23:29.923Z,68.80
2018-05-02T21:25:57.517Z,68.80
2018-05-02T21:28:25.036Z,68.80
2018-05-02T21:30:53.316Z,68.60
2018-05-02T21:33:21.609Z,68.50
2018-05-02T21:35:49.126Z,68.50
2018-05-02T21:38:16.682Z,68.60
2018-05-02T21:40:44.287Z,68.40
2018-05-02T21:43:11.772Z,68.40
2018-05-02T21:45:39.277Z,68.40
2018-05-02T21:48:06.796Z,68.40
2018-05-02T21:50:34.340Z,68.50
2018-05-02T21:53:02.626Z,68.40
2018-05-02T21:55:30.914Z,68.40
2018-05-02T21:57:59.211Z,68.50
2018-05-02T22:00:26.738Z,68.40
2018-05-02T22:02:54.255Z,68.60
2018-05-02T22:05:21.772Z,68.80
2018-05-02T22:07:50.065Z,68.70
2018-05-02T22:10:18.343Z,68.50
2018-05-02T22:12:46.631Z,68.20
2018-05-02T22:15:14.941Z,67.80
2018-05-02T22:17:42.493Z,67.80
2018-05-02T22:20:10.001Z,67.60
2018-05-02T22:22:37.512Z,67.50
2018-05-02T22:25:05.081Z,67.50
2018-05-02T22:27:32.600Z,67.60
2018-05-02T22:30:00.146Z,67.60
2018-05-02T22:32:27.678Z,67.60
2018-05-02T22:34:55.201Z,67.30
2018-05-02T22:37:22.750Z,67.40
2018-05-02T22:39:50.257Z,67.40
2018-05-02T22:42:17.780Z,67.40
2018-05-02T22:44:45.320Z,67.40
2018-05-02T22:47:12.840Z,67.60
2018-05-02T22:49:41.130Z,67.60
2018-05-02T22:52:08.668Z,67.50
2018-05-02T22:54:36.955Z,67.80
2018-05-02T22:57:05.266Z,67.80
2018-05-02T22:59:32.779Z,67.80
2018-05-02T23:02:00.297Z,67.60
2018-05-02T23:04:27.828Z,67.60
2018-05-02T23:06:56.097Z,67.40
2018-05-02T23:09:24.384Z,67.70
2018-05-02T23:11:52.688Z,67.30
2018-05-02T23:14:20.187Z,67.10
2018-05-02T23:16:47.711Z,67.20
2018-05-02T23:19:15.989Z,66.90
2018-05-02T23:21:44.296Z,67.00
2018-05-02T23:24:11.813Z,67.00
2018-05-02T23:26:39.337Z,67.00
2018-05-02T23:29:06.867Z,66.80
2018-05-02T23:31:34.377Z,66.90
2018-05-02T23:34:01.919Z,66.80
2018-05-02T23:36:29.434Z,66.80
2018-05-02T23:38:56.937Z,67.00
2018-05-02T23:41:25.297Z,66.90
2018-05-02T23:43:52.752Z,66.90
2018-05-02T23:46:21.040Z,66.50
2018-05-02T23:48:49.318Z,66.60
2018-05-02T23:51:17.610Z,67.10
2018-05-02T23:53:45.114Z,67.10
2018-05-02T23:56:12.647Z,66.70
2018-05-02T23:58:40.153Z,66.90
